सभी
Hunter Island Airport YHTR मौसम
There is no TAF data available at YHTR or any nearby airports.
There is no METAR data available at YHTR. Showing METAR data for YSMI (28 mi SE).
Recent SIO METAR history (no data for YHTR)
| Date | Time (AEST) | Flight Rules | Wind Dir. | Speed | Type | Height AGL (ft) | Visibility | Temp (°C) | Temp (°F) | Dew Point (°C) | Dew Point (°F) | Rel. Humid. | Pressure | Density Altitude | Remarks |
|---|---|---|---|---|---|---|---|---|---|---|---|---|---|---|---|
| 03-मई | 06:00 | n/a | 90° | 10 kt | Missing | 16° | 60° | 15° | 59° | 94% | 1012 mb | 187 ft | |||
| 03-मई | 05:00 | n/a | 90° | 10 kt | Missing | 16° | 60° | 15° | 59° | 94% | 1012 mb | 187 ft | |||
| 03-मई | 04:00 | n/a | 80° | 11 kt | Missing | 16° | 60° | 15° | 59° | 94% | 1012 mb | 187 ft | |||
| 03-मई | 03:00 | n/a | 80° | 8 kt | Missing | 16° | 60° | 14° | 57° | 88% | 1013 mb | 157 ft | |||
| 03-मई | 02:00 | n/a | 80° | 10 kt | Missing | 17° | 62° | 14° | 57° | 82% | 1013 mb | 277 ft | |||
| 03-मई | 01:00 | n/a | 100° | 6 kt | Missing | 16° | 60° | 14° | 57° | 88% | 1014 mb | 128 ft | |||
| 03-मई | 00:00 | n/a | 60° | 8 kt | Missing | 17° | 62° | 14° | 57° | 82% | 1014 mb | 248 ft | |||
| 02-मई | 23:00 | n/a | 60° | 11 kt | Missing | 19° | 66° | 13° | 55° | 68% | 1015 mb | 458 ft | |||
| 02-मई | 22:00 | n/a | 70° | 14 kt | Missing | 19° | 66° | 13° | 55° | 68% | 1014 mb | 488 ft | |||
| 02-मई | 21:00 | n/a | 70° | 13 kt | Missing | 18° | 64° | 13° | 55° | 73% | 1014 mb | 368 ft | |||
| 02-मई | 20:00 | n/a | 70° | 13 kt | Missing | 18° | 64° | 14° | 57° | 77% | 1014 mb | 368 ft | |||
| 02-मई | 19:00 | n/a | 70° | 13 kt | Missing | 18° | 64° | 13° | 55° | 73% | 1014 mb | 368 ft | |||
| 02-मई | 18:00 | n/a | 70° | 14 kt | Missing | 18° | 64° | 14° | 57° | 77% | 1014 mb | 368 ft | |||
| 02-मई | 17:00 | n/a | 70° | 12 kt | Missing | 18° | 64° | 13° | 55° | 73% | 1014 mb | 368 ft | |||
| 02-मई | 16:00 | n/a | 80° | 12 kt | Missing | 19° | 66° | 14° | 57° | 73% | 1015 mb | 458 ft | |||
| 02-मई | 15:00 | n/a | 70° | 13 kt | Missing | 18° | 64° | 14° | 57° | 77% | 1015 mb | 338 ft | |||
| 02-मई | 14:00 | n/a | 70° | 12 kt | Missing | 19° | 66° | 14° | 57° | 73% | 1015 mb | 458 ft | |||
| 02-मई | 13:00 | n/a | 70° | 15 kt | Missing | 19° | 66° | 15° | 59° | 78% | 1016 mb | 429 ft | |||
| 02-मई | 12:00 | n/a | 70° | 15 kt | Missing | 19° | 66° | 15° | 59° | 78% | 1017 mb | 399 ft | |||
| 02-मई | 11:00 | n/a | 70° | 15 kt | Missing | 19° | 66° | 14° | 57° | 73% | 1018 mb | 369 ft | |||
| 02-मई | 10:00 | n/a | 80° | 18 kt | Missing | 19° | 66° | 15° | 59° | 78% | 1018 mb | 369 ft | |||
| 02-मई | 09:00 | n/a | 80° | 15 kt | Missing | 18° | 64° | 14° | 57° | 77% | 1018 mb | 249 ft | |||
| 02-मई | 08:00 | n/a | 80° | 15 kt | Missing | 17° | 62° | 14° | 57° | 82% | 1018 mb | 129 ft | |||
| 02-मई | 07:00 | n/a | 80° | 15 kt | Missing | 17° | 62° | 12° | 53° | 72% | 1018 mb | 129 ft |
लॉगिन
| Your browser is unsupported. अपना ब्राऊजर अपग्रेड करें |
